sensor_id;sensor_type;location;lat;lon;timestamp;temperature;humidity
4431;DHT22;2228;48.140;11.488;2023-08-07T00:37:13;12.00;43.40
4431;DHT22;2228;48.140;11.488;2023-08-07T00:39:43;12.00;23.20
4431;DHT22;2228;48.140;11.488;2023-08-07T00:44:40;11.70;99.90
4431;DHT22;2228;48.140;11.488;2023-08-07T00:47:09;11.50;99.90
4431;DHT22;2228;48.140;11.488;2023-08-07T00:49:37;11.30;99.90
4431;DHT22;2228;48.140;11.488;2023-08-07T00:52:05;11.10;99.90
4431;DHT22;2228;48.140;11.488;2023-08-07T00:54:35;11.10;99.90
4431;DHT22;2228;48.140;11.488;2023-08-07T00:57:10;10.80;1.00
4431;DHT22;2228;48.140;11.488;2023-08-07T01:14:51;10.60;1.00
4431;DHT22;2228;48.140;11.488;2023-08-07T01:17:21;10.60;1.00
4431;DHT22;2228;48.140;11.488;2023-08-07T01:19:51;10.60;1.00
4431;DHT22;2228;48.140;11.488;2023-08-07T01:24:51;10.50;1.00
4431;DHT22;2228;48.140;11.488;2023-08-07T01:27:35;10.50;1.00
4431;DHT22;2228;48.140;11.488;2023-08-07T01:30:12;10.40;1.00
4431;DHT22;2228;48.140;11.488;2023-08-07T01:33:05;10.40;1.00
4431;DHT22;2228;48.140;11.488;2023-08-07T01:35:36;10.40;1.00
4431;DHT22;2228;48.140;11.488;2023-08-07T01:38:11;10.40;1.00
4431;DHT22;2228;48.140;11.488;2023-08-07T01:40:39;10.30;1.00
4431;DHT22;2228;48.140;11.488;2023-08-07T01:43:08;10.30;1.00
4431;DHT22;2228;48.140;11.488;2023-08-07T01:45:37;10.30;63.40
4431;DHT22;2228;48.140;11.488;2023-08-07T01:48:04;10.30;45.40
4431;DHT22;2228;48.140;11.488;2023-08-07T01:50:31;10.30;38.50
4431;DHT22;2228;48.140;11.488;2023-08-07T01:53:01;10.20;99.90
4431;DHT22;2228;48.140;11.488;2023-08-07T01:57:57;10.30;99.90
4431;DHT22;2228;48.140;11.488;2023-08-07T02:00:25;7.10;99.90
4431;DHT22;2228;48.140;11.488;2023-08-07T02:02:57;10.10;1.00
4431;DHT22;2228;48.140;11.488;2023-08-07T02:05:29;12.10;1.00
4431;DHT22;2228;48.140;11.488;2023-08-07T02:07:57;12.20;99.90
4431;DHT22;2228;48.140;11.488;2023-08-07T02:10:26;10.10;99.90
4431;DHT22;2228;48.140;11.488;2023-08-07T02:12:57;8.90;99.90
4431;DHT22;2228;48.140;11.488;2023-08-07T02:15:25;10.20;99.90
4431;DHT22;2228;48.140;11.488;2023-08-07T02:17:52;10.10;86.30
4431;DHT22;2228;48.140;11.488;2023-08-07T02:20:20;10.10;99.90
4431;DHT22;2228;48.140;11.488;2023-08-07T02:22:48;10.10;99.90
4431;DHT22;2228;48.140;11.488;2023-08-07T02:25:16;10.20;99.90
4431;DHT22;2228;48.140;11.488;2023-08-07T02:27:45;10.20;78.20
4431;DHT22;2228;48.140;11.488;2023-08-07T02:30:16;10.20;97.70
4431;DHT22;2228;48.140;11.488;2023-08-07T02:32:45;10.20;99.90
4431;DHT22;2228;48.140;11.488;2023-08-07T02:35:12;10.20;1.00
4431;DHT22;2228;48.140;11.488;2023-08-07T02:37:39;10.20;99.90
4431;DHT22;2228;48.140;11.488;2023-08-07T02:40:07;10.20;67.70
4431;DHT22;2228;48.140;11.488;2023-08-07T02:45:05;10.30;51.10
4431;DHT22;2228;48.140;11.488;2023-08-07T02:47:35;10.40;1.00
4431;DHT22;2228;48.140;11.488;2023-08-07T02:50:04;10.30;1.00
4431;DHT22;2228;48.140;11.488;2023-08-07T02:52:31;10.30;1.00
4431;DHT22;2228;48.140;11.488;2023-08-07T02:54:58;7.00;1.00
4431;DHT22;2228;48.140;11.488;2023-08-07T02:57:25;10.40;1.00
4431;DHT22;2228;48.140;11.488;2023-08-07T02:59:52;10.40;1.00
4431;DHT22;2228;48.140;11.488;2023-08-07T03:02:20;10.50;1.00
4431;DHT22;2228;48.140;11.488;2023-08-07T03:04:51;12.20;1.00
4431;DHT22;2228;48.140;11.488;2023-08-07T03:09:47;10.50;1.00
4431;DHT22;2228;48.140;11.488;2023-08-07T03:12:14;12.00;1.00
4431;DHT22;2228;48.140;11.488;2023-08-07T03:14:42;10.50;1.00
4431;DHT22;2228;48.140;11.488;2023-08-07T03:17:10;10.50;1.00
4431;DHT22;2228;48.140;11.488;2023-08-07T03:19:39;10.60;1.00
4431;DHT22;2228;48.140;11.488;2023-08-07T03:22:08;10.60;1.00
4431;DHT22;2228;48.140;11.488;2023-08-07T03:24:35;14.00;1.00
4431;DHT22;2228;48.140;11.488;2023-08-07T03:27:03;10.80;99.90
4431;DHT22;2228;48.140;11.488;2023-08-07T03:29:30;10.80;99.90
4431;DHT22;2228;48.140;11.488;2023-08-07T03:31:58;10.80;99.90
4431;DHT22;2228;48.140;11.488;2023-08-07T03:34:27;13.90;99.90
4431;DHT22;2228;48.140;11.488;2023-08-07T03:36:54;11.20;99.90
4431;DHT22;2228;48.140;11.488;2023-08-07T03:41:51;11.00;99.90
4431;DHT22;2228;48.140;11.488;2023-08-07T03:44:18;11.10;99.90
4431;DHT22;2228;48.140;11.488;2023-08-07T03:46:46;11.00;99.90
4431;DHT22;2228;48.140;11.488;2023-08-07T03:49:14;11.10;99.90
4431;DHT22;2228;48.140;11.488;2023-08-07T03:51:41;11.10;99.90
4431;DHT22;2228;48.140;11.488;2023-08-07T03:54:08;11.10;99.90
4431;DHT22;2228;48.140;11.488;2023-08-07T03:56:36;11.10;99.90
4431;DHT22;2228;48.140;11.488;2023-08-07T03:59:04;11.10;99.90
4431;DHT22;2228;48.140;11.488;2023-08-07T04:01:32;11.30;99.90
4431;DHT22;2228;48.140;11.488;2023-08-07T04:04:08;11.20;99.90
4431;DHT22;2228;48.140;11.488;2023-08-07T04:06:35;11.20;99.90
4431;DHT22;2228;48.140;11.488;2023-08-07T04:09:16;11.20;99.90
4431;DHT22;2228;48.140;11.488;2023-08-07T04:11:52;11.20;99.90
4431;DHT22;2228;48.140;11.488;2023-08-07T04:14:21;14.90;99.90
4431;DHT22;2228;48.140;11.488;2023-08-07T04:16:50;11.30;99.90
4431;DHT22;2228;48.140;11.488;2023-08-07T04:19:18;12.60;99.90
4431;DHT22;2228;48.140;11.488;2023-08-07T04:21:45;11.30;99.90
4431;DHT22;2228;48.140;11.488;2023-08-07T04:24:13;11.30;99.90
4431;DHT22;2228;48.140;11.488;2023-08-07T04:26:42;11.30;99.90
4431;DHT22;2228;48.140;11.488;2023-08-07T05:43:05;12.00;1.00
4431;DHT22;2228;48.140;11.488;2023-08-07T05:45:34;11.60;1.00
4431;DHT22;2228;48.140;11.488;2023-08-07T05:48:03;11.50;1.00
4431;DHT22;2228;48.140;11.488;2023-08-07T05:50:31;11.60;1.00
4431;DHT22;2228;48.140;11.488;2023-08-07T05:52:58;12.50;1.00
4431;DHT22;2228;48.140;11.488;2023-08-07T05:55:27;11.70;1.00
4431;DHT22;2228;48.140;11.488;2023-08-07T05:57:55;11.80;1.00
4431;DHT22;2228;48.140;11.488;2023-08-07T06:00:39;13.00;1.00
4431;DHT22;2228;48.140;11.488;2023-08-07T06:03:08;11.70;1.00
4431;DHT22;2228;48.140;11.488;2023-08-07T06:05:36;9.20;1.00
4431;DHT22;2228;48.140;11.488;2023-08-07T06:08:05;13.70;1.00
4431;DHT22;2228;48.140;11.488;2023-08-07T06:10:39;14.40;1.00
4431;DHT22;2228;48.140;11.488;2023-08-07T06:13:10;11.90;1.00
4431;DHT22;2228;48.140;11.488;2023-08-07T06:15:40;14.50;1.00
4431;DHT22;2228;48.140;11.488;2023-08-07T06:18:08;14.70;1.00
4431;DHT22;2228;48.140;11.488;2023-08-07T06:20:35;14.40;1.00
4431;DHT22;2228;48.140;11.488;2023-08-07T06:23:07;11.90;1.00
4431;DHT22;2228;48.140;11.488;2023-08-07T06:25:37;13.40;1.00
4431;DHT22;2228;48.140;11.488;2023-08-07T06:28:05;10.30;1.00
4431;DHT22;2228;48.140;11.488;2023-08-07T06:30:32;15.20;1.00
4431;DHT22;2228;48.140;11.488;2023-08-07T06:33:00;13.10;1.00
4431;DHT22;2228;48.140;11.488;2023-08-07T06:35:28;12.10;1.00
4431;DHT22;2228;48.140;11.488;2023-08-07T06:37:55;12.20;1.00
4431;DHT22;2228;48.140;11.488;2023-08-07T06:40:22;12.10;1.00
4431;DHT22;2228;48.140;11.488;2023-08-07T06:42:49;12.20;1.00
4431;DHT22;2228;48.140;11.488;2023-08-07T06:45:16;12.20;1.00
4431;DHT22;2228;48.140;11.488;2023-08-07T06:47:43;14.30;1.00
4431;DHT22;2228;48.140;11.488;2023-08-07T06:50:13;12.50;1.00
4431;DHT22;2228;48.140;11.488;2023-08-07T06:52:40;12.60;1.00
4431;DHT22;2228;48.140;11.488;2023-08-07T06:55:07;12.80;1.00
4431;DHT22;2228;48.140;11.488;2023-08-07T06:57:34;12.90;1.00
4431;DHT22;2228;48.140;11.488;2023-08-07T07:00:02;13.10;1.00
4431;DHT22;2228;48.140;11.488;2023-08-07T07:02:30;13.20;1.00
4431;DHT22;2228;48.140;11.488;2023-08-07T07:04:57;14.50;1.00
4431;DHT22;2228;48.140;11.488;2023-08-07T07:07:26;17.40;1.00
4431;DHT22;2228;48.140;11.488;2023-08-07T07:09:53;13.50;1.00
4431;DHT22;2228;48.140;11.488;2023-08-07T07:12:20;13.80;1.00
4431;DHT22;2228;48.140;11.488;2023-08-07T07:14:47;13.80;1.00
4431;DHT22;2228;48.140;11.488;2023-08-07T07:17:14;13.80;1.00
4431;DHT22;2228;48.140;11.488;2023-08-07T07:19:41;15.60;1.00
4431;DHT22;2228;48.140;11.488;2023-08-07T07:22:08;14.20;1.00
4431;DHT22;2228;48.140;11.488;2023-08-07T07:24:38;14.10;1.00
4431;DHT22;2228;48.140;11.488;2023-08-07T07:27:05;14.30;1.00
4431;DHT22;2228;48.140;11.488;2023-08-07T07:29:32;14.50;1.00
4431;DHT22;2228;48.140;11.488;2023-08-07T07:31:59;16.60;1.00
4431;DHT22;2228;48.140;11.488;2023-08-07T07:34:26;14.30;1.00
4431;DHT22;2228;48.140;11.488;2023-08-07T07:36:53;14.60;1.00
4431;DHT22;2228;48.140;11.488;2023-08-07T07:39:21;14.10;1.00
4431;DHT22;2228;48.140;11.488;2023-08-07T07:41:49;14.10;1.00
4431;DHT22;2228;48.140;11.488;2023-08-07T07:44:16;14.10;1.00
4431;DHT22;2228;48.140;11.488;2023-08-07T07:46:43;15.20;1.00
4431;DHT22;2228;48.140;11.488;2023-08-07T07:49:10;14.30;1.00
4431;DHT22;2228;48.140;11.488;2023-08-07T07:51:37;16.10;1.00
4431;DHT22;2228;48.140;11.488;2023-08-07T07:54:06;16.50;1.00
4431;DHT22;2228;48.140;11.488;2023-08-07T07:56:33;14.30;1.00
4431;DHT22;2228;48.140;11.488;2023-08-07T07:59:02;14.20;1.00
4431;DHT22;2228;48.140;11.488;2023-08-07T08:01:29;14.10;1.00
4431;DHT22;2228;48.140;11.488;2023-08-07T08:03:56;17.50;1.00
4431;DHT22;2228;48.140;11.488;2023-08-07T08:06:23;14.00;1.00
4431;DHT22;2228;48.140;11.488;2023-08-07T08:08:52;15.30;1.00
4431;DHT22;2228;48.140;11.488;2023-08-07T08:11:19;13.90;1.00
4431;DHT22;2228;48.140;11.488;2023-08-07T08:13:46;13.80;1.00
4431;DHT22;2228;48.140;11.488;2023-08-07T08:16:15;13.90;1.00
4431;DHT22;2228;48.140;11.488;2023-08-07T08:18:42;14.20;1.00
4431;DHT22;2228;48.140;11.488;2023-08-07T08:21:09;15.80;1.00
4431;DHT22;2228;48.140;11.488;2023-08-07T08:23:36;14.00;1.00
4431;DHT22;2228;48.140;11.488;2023-08-07T08:26:03;17.10;1.00
4431;DHT22;2228;48.140;11.488;2023-08-07T08:28:30;13.90;1.00
4431;DHT22;2228;48.140;11.488;2023-08-07T08:30:57;14.00;1.00
4431;DHT22;2228;48.140;11.488;2023-08-07T08:33:25;14.00;1.00
4431;DHT22;2228;48.140;11.488;2023-08-07T08:35:52;14.20;1.00
4431;DHT22;2228;48.140;11.488;2023-08-07T08:38:20;16.60;1.00
4431;DHT22;2228;48.140;11.488;2023-08-07T08:40:49;14.10;1.00
4431;DHT22;2228;48.140;11.488;2023-08-07T08:43:18;14.00;1.00
4431;DHT22;2228;48.140;11.488;2023-08-07T08:45:47;14.10;1.00
4431;DHT22;2228;48.140;11.488;2023-08-07T08:48:19;14.00;1.00
4431;DHT22;2228;48.140;11.488;2023-08-07T08:50:52;14.10;1.00
4431;DHT22;2228;48.140;11.488;2023-08-07T08:53:20;17.60;1.00
4431;DHT22;2228;48.140;11.488;2023-08-07T08:55:48;18.50;1.00
4431;DHT22;2228;48.140;11.488;2023-08-07T08:58:16;14.60;1.00
4431;DHT22;2228;48.140;11.488;2023-08-07T09:00:44;14.70;1.00
4431;DHT22;2228;48.140;11.488;2023-08-07T09:03:12;14.70;1.00
4431;DHT22;2228;48.140;11.488;2023-08-07T09:05:39;15.00;1.00
4431;DHT22;2228;48.140;11.488;2023-08-07T09:08:09;16.10;1.00
4431;DHT22;2228;48.140;11.488;2023-08-07T09:10:38;14.90;1.00
4431;DHT22;2228;48.140;11.488;2023-08-07T09:13:11;13.90;1.00
4431;DHT22;2228;48.140;11.488;2023-08-07T09:15:41;17.30;1.00
4431;DHT22;2228;48.140;11.488;2023-08-07T09:18:13;14.70;1.00
4431;DHT22;2228;48.140;11.488;2023-08-07T09:20:40;14.80;1.00
4431;DHT22;2228;48.140;11.488;2023-08-07T09:23:09;17.60;1.00
4431;DHT22;2228;48.140;11.488;2023-08-07T09:25:36;15.00;1.00
4431;DHT22;2228;48.140;11.488;2023-08-07T09:28:05;17.50;1.00
4431;DHT22;2228;48.140;11.488;2023-08-07T09:30:34;15.10;1.00
4431;DHT22;2228;48.140;11.488;2023-08-07T09:33:03;18.40;1.00
4431;DHT22;2228;48.140;11.488;2023-08-07T09:35:30;15.10;1.00
4431;DHT22;2228;48.140;11.488;2023-08-07T09:37:58;16.70;1.00
4431;DHT22;2228;48.140;11.488;2023-08-07T09:40:26;15.30;1.00
4431;DHT22;2228;48.140;11.488;2023-08-07T09:42:54;15.70;1.00
4431;DHT22;2228;48.140;11.488;2023-08-07T09:45:21;15.90;1.00
4431;DHT22;2228;48.140;11.488;2023-08-07T09:47:59;17.20;1.00
4431;DHT22;2228;48.140;11.488;2023-08-07T09:50:28;17.90;1.00
4431;DHT22;2228;48.140;11.488;2023-08-07T09:52:56;17.20;1.00
4431;DHT22;2228;48.140;11.488;2023-08-07T09:55:23;15.90;1.00
4431;DHT22;2228;48.140;11.488;2023-08-07T09:57:52;16.70;1.00
4431;DHT22;2228;48.140;11.488;2023-08-07T10:00:20;15.80;1.00
4431;DHT22;2228;48.140;11.488;2023-08-07T10:02:47;15.90;1.00
4431;DHT22;2228;48.140;11.488;2023-08-07T10:05:15;16.30;1.00
4431;DHT22;2228;48.140;11.488;2023-08-07T10:07:43;16.60;1.00
4431;DHT22;2228;48.140;11.488;2023-08-07T10:10:10;16.50;1.00
4431;DHT22;2228;48.140;11.488;2023-08-07T10:12:38;16.50;1.00
4431;DHT22;2228;48.140;11.488;2023-08-07T10:15:08;16.50;1.00
4431;DHT22;2228;48.140;11.488;2023-08-07T10:17:35;16.70;1.00
4431;DHT22;2228;48.140;11.488;2023-08-07T10:20:02;16.90;1.00
4431;DHT22;2228;48.140;11.488;2023-08-07T10:22:30;16.90;1.00
4431;DHT22;2228;48.140;11.488;2023-08-07T10:25:00;16.70;1.00
4431;DHT22;2228;48.140;11.488;2023-08-07T10:27:30;17.70;1.00
4431;DHT22;2228;48.140;11.488;2023-08-07T10:29:59;16.80;1.00
4431;DHT22;2228;48.140;11.488;2023-08-07T10:32:29;19.90;1.00
4431;DHT22;2228;48.140;11.488;2023-08-07T10:34:57;18.70;1.00
4431;DHT22;2228;48.140;11.488;2023-08-07T10:37:39;19.10;1.00
4431;DHT22;2228;48.140;11.488;2023-08-07T10:40:08;19.80;1.00
4431;DHT22;2228;48.140;11.488;2023-08-07T10:42:56;17.10;1.00
4431;DHT22;2228;48.140;11.488;2023-08-07T10:45:24;17.10;1.00
4431;DHT22;2228;48.140;11.488;2023-08-07T10:48:06;17.60;1.00
4431;DHT22;2228;48.140;11.488;2023-08-07T10:50:35;18.90;1.00
4431;DHT22;2228;48.140;11.488;2023-08-07T10:53:19;17.40;1.00
4431;DHT22;2228;48.140;11.488;2023-08-07T10:55:55;18.20;1.00
4431;DHT22;2228;48.140;11.488;2023-08-07T10:58:24;18.30;1.00
4431;DHT22;2228;48.140;11.488;2023-08-07T11:03:40;19.20;1.00
4431;DHT22;2228;48.140;11.488;2023-08-07T11:06:09;19.90;1.00
4431;DHT22;2228;48.140;11.488;2023-08-07T11:08:52;19.60;1.00
4431;DHT22;2228;48.140;11.488;2023-08-07T11:11:36;19.10;1.00
4431;DHT22;2228;48.140;11.488;2023-08-07T11:14:06;22.40;1.00
4431;DHT22;2228;48.140;11.488;2023-08-07T11:16:36;22.40;1.00
4431;DHT22;2228;48.140;11.488;2023-08-07T11:19:06;20.30;1.00
4431;DHT22;2228;48.140;11.488;2023-08-07T11:21:34;19.20;1.00
4431;DHT22;2228;48.140;11.488;2023-08-07T11:24:02;19.00;1.00
4431;DHT22;2228;48.140;11.488;2023-08-07T11:26:30;19.00;1.00
4431;DHT22;2228;48.140;11.488;2023-08-07T11:28:57;15.10;1.00
4431;DHT22;2228;48.140;11.488;2023-08-07T11:31:25;19.20;1.00
4431;DHT22;2228;48.140;11.488;2023-08-07T11:33:54;17.40;1.00
4431;DHT22;2228;48.140;11.488;2023-08-07T11:36:24;18.60;1.00
4431;DHT22;2228;48.140;11.488;2023-08-07T11:38:51;16.80;1.00
4431;DHT22;2228;48.140;11.488;2023-08-07T11:41:19;17.00;1.00
4431;DHT22;2228;48.140;11.488;2023-08-07T11:43:47;16.40;1.00
4431;DHT22;2228;48.140;11.488;2023-08-07T11:46:15;16.50;1.00
4431;DHT22;2228;48.140;11.488;2023-08-07T11:48:44;17.30;1.00
4431;DHT22;2228;48.140;11.488;2023-08-07T11:51:11;16.70;1.00
4431;DHT22;2228;48.140;11.488;2023-08-07T11:53:41;16.50;99.90
4431;DHT22;2228;48.140;11.488;2023-08-07T11:56:11;16.80;1.00
4431;DHT22;2228;48.140;11.488;2023-08-07T11:58:40;17.00;1.00
4431;DHT22;2228;48.140;11.488;2023-08-07T12:01:10;17.70;1.00
4431;DHT22;2228;48.140;11.488;2023-08-07T12:03:38;17.30;1.00
4431;DHT22;2228;48.140;11.488;2023-08-07T12:06:07;19.40;1.00
4431;DHT22;2228;48.140;11.488;2023-08-07T12:08:35;17.70;99.90
4431;DHT22;2228;48.140;11.488;2023-08-07T12:11:13;21.20;99.90
4431;DHT22;2228;48.140;11.488;2023-08-07T12:13:42;21.00;99.90
4431;DHT22;2228;48.140;11.488;2023-08-07T12:16:11;19.30;1.00
4431;DHT22;2228;48.140;11.488;2023-08-07T12:18:44;18.90;99.90
4431;DHT22;2228;48.140;11.488;2023-08-07T12:21:14;19.00;99.90
4431;DHT22;2228;48.140;11.488;2023-08-07T12:23:41;19.10;99.90
4431;DHT22;2228;48.140;11.488;2023-08-07T12:26:08;19.10;99.90
4431;DHT22;2228;48.140;11.488;2023-08-07T12:28:37;19.40;1.00
4431;DHT22;2228;48.140;11.488;2023-08-07T12:31:04;20.00;99.90
4431;DHT22;2228;48.140;11.488;2023-08-07T12:33:32;19.80;1.00
4431;DHT22;2228;48.140;11.488;2023-08-07T12:36:00;20.00;99.90
4431;DHT22;2228;48.140;11.488;2023-08-07T12:38:28;20.60;99.90
4431;DHT22;2228;48.140;11.488;2023-08-07T12:40:55;21.10;99.90
4431;DHT22;2228;48.140;11.488;2023-08-07T12:43:22;22.20;99.90
4431;DHT22;2228;48.140;11.488;2023-08-07T12:45:52;20.40;99.90
4431;DHT22;2228;48.140;11.488;2023-08-07T12:48:20;22.20;99.90
4431;DHT22;2228;48.140;11.488;2023-08-07T12:50:47;19.30;1.00
4431;DHT22;2228;48.140;11.488;2023-08-07T12:53:15;19.00;1.00
4431;DHT22;2228;48.140;11.488;2023-08-07T14:43:43;17.70;99.90
4431;DHT22;2228;48.140;11.488;2023-08-07T14:46:11;17.60;99.90
4431;DHT22;2228;48.140;11.488;2023-08-07T14:48:38;17.20;99.90
4431;DHT22;2228;48.140;11.488;2023-08-07T14:51:05;16.80;99.90
4431;DHT22;2228;48.140;11.488;2023-08-07T14:53:32;16.40;99.90
4431;DHT22;2228;48.140;11.488;2023-08-07T14:55:59;16.60;99.90
4431;DHT22;2228;48.140;11.488;2023-08-07T14:58:27;16.40;99.90
4431;DHT22;2228;48.140;11.488;2023-08-07T15:00:55;16.80;99.90
4431;DHT22;2228;48.140;11.488;2023-08-07T15:03:22;20.70;99.90
4431;DHT22;2228;48.140;11.488;2023-08-07T15:05:49;17.50;99.90
4431;DHT22;2228;48.140;11.488;2023-08-07T15:08:16;17.40;99.90
4431;DHT22;2228;48.140;11.488;2023-08-07T15:10:43;17.30;99.90
4431;DHT22;2228;48.140;11.488;2023-08-07T15:13:10;17.30;99.90
4431;DHT22;2228;48.140;11.488;2023-08-07T15:15:37;20.10;99.90
4431;DHT22;2228;48.140;11.488;2023-08-07T15:18:05;17.80;99.90
4431;DHT22;2228;48.140;11.488;2023-08-07T15:20:34;17.40;99.90
4431;DHT22;2228;48.140;11.488;2023-08-07T15:23:01;18.40;99.90
4431;DHT22;2228;48.140;11.488;2023-08-07T15:25:29;18.20;99.90
4431;DHT22;2228;48.140;11.488;2023-08-07T15:27:56;18.60;99.90
4431;DHT22;2228;48.140;11.488;2023-08-07T15:30:27;17.80;99.90
4431;DHT22;2228;48.140;11.488;2023-08-07T15:32:55;17.80;99.90
4431;DHT22;2228;48.140;11.488;2023-08-07T15:35:23;18.20;99.90
4431;DHT22;2228;48.140;11.488;2023-08-07T15:37:51;18.30;99.90
4431;DHT22;2228;48.140;11.488;2023-08-07T15:40:18;18.80;99.90
4431;DHT22;2228;48.140;11.488;2023-08-07T15:42:45;18.90;99.90
4431;DHT22;2228;48.140;11.488;2023-08-07T15:45:13;18.40;99.90
4431;DHT22;2228;48.140;11.488;2023-08-07T15:47:40;18.00;99.90
4431;DHT22;2228;48.140;11.488;2023-08-07T15:50:08;18.80;99.90
4431;DHT22;2228;48.140;11.488;2023-08-07T15:52:36;17.30;99.90
4431;DHT22;2228;48.140;11.488;2023-08-07T15:55:03;17.10;99.90
4431;DHT22;2228;48.140;11.488;2023-08-07T15:57:30;17.00;99.90
4431;DHT22;2228;48.140;11.488;2023-08-07T15:59:57;16.70;99.90
4431;DHT22;2228;48.140;11.488;2023-08-07T16:02:24;16.40;99.90
4431;DHT22;2228;48.140;11.488;2023-08-07T16:04:51;17.50;99.90
4431;DHT22;2228;48.140;11.488;2023-08-07T16:07:18;19.90;99.90
4431;DHT22;2228;48.140;11.488;2023-08-07T16:09:46;16.10;99.90
4431;DHT22;2228;48.140;11.488;2023-08-07T16:12:13;16.10;99.90
4431;DHT22;2228;48.140;11.488;2023-08-07T16:14:43;16.10;99.90
4431;DHT22;2228;48.140;11.488;2023-08-07T16:17:10;16.20;99.90
4431;DHT22;2228;48.140;11.488;2023-08-07T16:19:37;16.00;99.90
4431;DHT22;2228;48.140;11.488;2023-08-07T16:22:04;18.10;99.90
4431;DHT22;2228;48.140;11.488;2023-08-07T16:24:31;15.40;1.00
4431;DHT22;2228;48.140;11.488;2023-08-07T16:27:00;14.80;1.00
4431;DHT22;2228;48.140;11.488;2023-08-07T16:29:27;14.40;1.00
4431;DHT22;2228;48.140;11.488;2023-08-07T16:31:54;14.20;1.00
4431;DHT22;2228;48.140;11.488;2023-08-07T16:34:21;13.80;1.00
4431;DHT22;2228;48.140;11.488;2023-08-07T16:36:47;13.80;1.00
4431;DHT22;2228;48.140;11.488;2023-08-07T16:39:14;14.70;1.00
4431;DHT22;2228;48.140;11.488;2023-08-07T16:41:41;13.50;1.00
4431;DHT22;2228;48.140;11.488;2023-08-07T16:44:12;13.60;17.80
4431;DHT22;2228;48.140;11.488;2023-08-07T16:46:39;13.70;16.70
4431;DHT22;2228;48.140;11.488;2023-08-07T16:49:06;13.80;32.00
4431;DHT22;2228;48.140;11.488;2023-08-07T16:51:33;13.90;75.10
4431;DHT22;2228;48.140;11.488;2023-08-07T16:54:00;14.00;1.00
4431;DHT22;2228;48.140;11.488;2023-08-07T16:56:27;14.80;1.00
4431;DHT22;2228;48.140;11.488;2023-08-07T16:58:54;14.00;1.00
4431;DHT22;2228;48.140;11.488;2023-08-07T17:01:22;14.00;1.00
4431;DHT22;2228;48.140;11.488;2023-08-07T17:03:49;14.90;1.00
4431;DHT22;2228;48.140;11.488;2023-08-07T17:06:15;14.00;1.00
4431;DHT22;2228;48.140;11.488;2023-08-07T17:08:42;14.10;1.00
4431;DHT22;2228;48.140;11.488;2023-08-07T17:11:12;14.20;1.00
4431;DHT22;2228;48.140;11.488;2023-08-07T17:13:39;14.30;1.00
4431;DHT22;2228;48.140;11.488;2023-08-07T17:16:06;14.30;55.90
4431;DHT22;2228;48.140;11.488;2023-08-07T17:18:34;14.40;4.20
4431;DHT22;2228;48.140;11.488;2023-08-07T17:21:01;11.40;1.00
4431;DHT22;2228;48.140;11.488;2023-08-07T17:23:28;14.50;1.00
4431;DHT22;2228;48.140;11.488;2023-08-07T17:25:55;14.70;1.00
4431;DHT22;2228;48.140;11.488;2023-08-07T17:28:25;14.70;1.00
4431;DHT22;2228;48.140;11.488;2023-08-07T17:30:51;14.70;1.00
4431;DHT22;2228;48.140;11.488;2023-08-07T17:33:18;16.90;1.00
4431;DHT22;2228;48.140;11.488;2023-08-07T17:35:47;14.80;1.00
4431;DHT22;2228;48.140;11.488;2023-08-07T17:38:14;14.70;1.00
4431;DHT22;2228;48.140;11.488;2023-08-07T17:40:41;14.60;1.00
4431;DHT22;2228;48.140;11.488;2023-08-07T17:43:08;13.50;1.00
4431;DHT22;2228;48.140;11.488;2023-08-07T17:45:35;15.10;1.00
4431;DHT22;2228;48.140;11.488;2023-08-07T17:48:02;15.20;1.00
4431;DHT22;2228;48.140;11.488;2023-08-07T17:50:29;15.20;1.00
4431;DHT22;2228;48.140;11.488;2023-08-07T17:52:58;15.30;1.00
4431;DHT22;2228;48.140;11.488;2023-08-07T17:55:24;16.10;1.00
4431;DHT22;2228;48.140;11.488;2023-08-07T17:57:52;15.50;1.00
4431;DHT22;2228;48.140;11.488;2023-08-07T18:00:19;15.80;1.00
4431;DHT22;2228;48.140;11.488;2023-08-07T18:02:46;15.80;1.00
4431;DHT22;2228;48.140;11.488;2023-08-07T18:05:15;15.60;1.00
4431;DHT22;2228;48.140;11.488;2023-08-07T18:07:42;16.50;1.00
4431;DHT22;2228;48.140;11.488;2023-08-07T18:10:10;16.40;1.00
4431;DHT22;2228;48.140;11.488;2023-08-07T18:12:37;15.40;4.70
4431;DHT22;2228;48.140;11.488;2023-08-07T18:15:05;15.30;35.10
4431;DHT22;2228;48.140;11.488;2023-08-07T18:17:32;15.10;73.70
4431;DHT22;2228;48.140;11.488;2023-08-07T18:19:59;14.90;99.90
4431;DHT22;2228;48.140;11.488;2023-08-07T18:22:26;14.80;99.90
4431;DHT22;2228;48.140;11.488;2023-08-07T18:24:53;14.70;99.90
4431;DHT22;2228;48.140;11.488;2023-08-07T18:27:21;14.60;87.50
4431;DHT22;2228;48.140;11.488;2023-08-07T18:29:48;15.50;1.00
4431;DHT22;2228;48.140;11.488;2023-08-07T18:32:15;14.40;1.00
4431;DHT22;2228;48.140;11.488;2023-08-07T18:34:42;14.20;1.00
4431;DHT22;2228;48.140;11.488;2023-08-07T18:37:09;14.30;1.00
4431;DHT22;2228;48.140;11.488;2023-08-07T18:39:36;14.30;1.00
4431;DHT22;2228;48.140;11.488;2023-08-07T18:42:04;14.80;1.00
4431;DHT22;2228;48.140;11.488;2023-08-07T18:44:32;13.90;1.00
4431;DHT22;2228;48.140;11.488;2023-08-07T18:46:59;14.10;1.00
4431;DHT22;2228;48.140;11.488;2023-08-07T18:49:27;15.10;1.00
4431;DHT22;2228;48.140;11.488;2023-08-07T18:51:55;14.40;1.00
4431;DHT22;2228;48.140;11.488;2023-08-07T18:54:21;14.00;1.00
4431;DHT22;2228;48.140;11.488;2023-08-07T18:56:49;14.00;1.00
4431;DHT22;2228;48.140;11.488;2023-08-07T18:59:18;13.90;1.00
4431;DHT22;2228;48.140;11.488;2023-08-07T19:01:46;13.80;1.00
4431;DHT22;2228;48.140;11.488;2023-08-07T19:04:13;13.80;1.00
4431;DHT22;2228;48.140;11.488;2023-08-07T19:06:41;13.80;1.00
4431;DHT22;2228;48.140;11.488;2023-08-07T19:09:08;13.90;1.00
4431;DHT22;2228;48.140;11.488;2023-08-07T19:11:35;13.90;1.00
4431;DHT22;2228;48.140;11.488;2023-08-07T19:14:02;13.90;1.00
4431;DHT22;2228;48.140;11.488;2023-08-07T19:16:29;13.70;1.00
4431;DHT22;2228;48.140;11.488;2023-08-07T19:18:57;13.90;1.00
4431;DHT22;2228;48.140;11.488;2023-08-07T19:21:25;13.90;1.00
4431;DHT22;2228;48.140;11.488;2023-08-07T19:23:52;13.90;1.00
4431;DHT22;2228;48.140;11.488;2023-08-07T19:26:19;13.80;1.00
4431;DHT22;2228;48.140;11.488;2023-08-07T19:28:45;13.90;1.00
4431;DHT22;2228;48.140;11.488;2023-08-07T19:31:13;14.50;2.80
4431;DHT22;2228;48.140;11.488;2023-08-07T19:33:40;13.80;1.00
4431;DHT22;2228;48.140;11.488;2023-08-07T19:36:08;13.70;1.00
4431;DHT22;2228;48.140;11.488;2023-08-07T19:38:35;13.70;1.00
4431;DHT22;2228;48.140;11.488;2023-08-07T19:41:02;13.60;1.00
4431;DHT22;2228;48.140;11.488;2023-08-07T19:43:28;13.50;17.50
4431;DHT22;2228;48.140;11.488;2023-08-07T19:45:55;13.50;16.50
4431;DHT22;2228;48.140;11.488;2023-08-07T19:48:23;13.40;20.30
4431;DHT22;2228;48.140;11.488;2023-08-07T19:50:51;13.40;1.00
4431;DHT22;2228;48.140;11.488;2023-08-07T19:53:20;13.40;1.00
4431;DHT22;2228;48.140;11.488;2023-08-07T19:55:47;13.60;1.00
4431;DHT22;2228;48.140;11.488;2023-08-07T19:58:15;14.40;11.20
4431;DHT22;2228;48.140;11.488;2023-08-07T20:00:42;13.50;1.00
4431;DHT22;2228;48.140;11.488;2023-08-07T20:03:09;13.50;1.00
4431;DHT22;2228;48.140;11.488;2023-08-07T20:05:37;13.50;1.00
4431;DHT22;2228;48.140;11.488;2023-08-07T20:08:04;15.00;1.00
4431;DHT22;2228;48.140;11.488;2023-08-07T20:10:33;13.30;2.60
4431;DHT22;2228;48.140;11.488;2023-08-07T20:12:59;15.60;19.50
4431;DHT22;2228;48.140;11.488;2023-08-07T20:15:27;13.10;30.90